Seattle, Washington
Traffic Map
Current Weather Conditions
Seattle, Washington
Overcast
Overcast
17°
Feels Like: 17°
Wind Chill: 17° Ceiling: 1300
Heat Index: 17° Visibility: 10mi
Dew Point: 13° Wind: 7mph
Humidity: 78% Direction: 160° (SSE)
Pressure: 30.1in Gusts: 0mph
Raw Report DataKBFI 281453Z 16006KT 10SM OVC013 17/13 A3010 RMK AO2 SLP191 T01720133 53007
Traffic Incident Summary
Active as of:
Severity:
Category:
InformationThere was an issue retrieving the traffic information for this location. Please try a different location or try again shortly.
Advertisements
Track Severe Weather on mobile